sensor_id;sensor_type;location;lat;lon;timestamp;pressure;altitude;pressure_sealevel;temperature;humidity
57948;BME280;43754;56.992;24.292;2023-03-04T00:01:54;99648.72;;;1.68;100.00
57948;BME280;43754;56.992;24.292;2023-03-04T00:04:26;99632.34;;;1.64;100.00
57948;BME280;43754;56.992;24.292;2023-03-04T00:07:00;99633.41;;;1.71;100.00
57948;BME280;43754;56.992;24.292;2023-03-04T00:09:32;99624.03;;;1.77;100.00
57948;BME280;43754;56.992;24.292;2023-03-04T00:12:04;99615.00;;;1.79;100.00
57948;BME280;43754;56.992;24.292;2023-03-04T00:14:39;99614.31;;;1.77;100.00
57948;BME280;43754;56.992;24.292;2023-03-04T00:17:11;99610.44;;;1.72;100.00
57948;BME280;43754;56.992;24.292;2023-03-04T00:19:43;99617.78;;;1.78;100.00
57948;BME280;43754;56.992;24.292;2023-03-04T00:22:16;99613.34;;;1.78;100.00
57948;BME280;43754;56.992;24.292;2023-03-04T00:24:48;99612.88;;;1.83;100.00
57948;BME280;43754;56.992;24.292;2023-03-04T00:27:20;99614.00;;;1.80;100.00
57948;BME280;43754;56.992;24.292;2023-03-04T00:29:52;99615.97;;;1.78;100.00
57948;BME280;43754;56.992;24.292;2023-03-04T00:32:24;99610.63;;;1.70;100.00
57948;BME280;43754;56.992;24.292;2023-03-04T00:34:56;99605.16;;;1.72;100.00
57948;BME280;43754;56.992;24.292;2023-03-04T00:37:30;99604.81;;;1.67;100.00
57948;BME280;43754;56.992;24.292;2023-03-04T00:40:02;99600.66;;;1.64;100.00
57948;BME280;43754;56.992;24.292;2023-03-04T00:42:34;99593.47;;;1.57;100.00
57948;BME280;43754;56.992;24.292;2023-03-04T00:45:08;99590.63;;;1.50;100.00
57948;BME280;43754;56.992;24.292;2023-03-04T00:47:40;99585.50;;;1.49;100.00
57948;BME280;43754;56.992;24.292;2023-03-04T00:50:12;99585.78;;;1.46;100.00
57948;BME280;43754;56.992;24.292;2023-03-04T00:52:45;99593.53;;;1.47;100.00
57948;BME280;43754;56.992;24.292;2023-03-04T00:55:17;99594.56;;;1.46;100.00
57948;BME280;43754;56.992;24.292;2023-03-04T00:57:49;99587.53;;;1.37;100.00
57948;BME280;43754;56.992;24.292;2023-03-04T01:00:22;99582.50;;;1.34;100.00
57948;BME280;43754;56.992;24.292;2023-03-04T01:02:54;99575.75;;;1.31;100.00
57948;BME280;43754;56.992;24.292;2023-03-04T01:05:26;99581.00;;;1.31;100.00
57948;BME280;43754;56.992;24.292;2023-03-04T01:08:00;99577.94;;;1.36;100.00
57948;BME280;43754;56.992;24.292;2023-03-04T01:10:32;99577.50;;;1.41;100.00
57948;BME280;43754;56.992;24.292;2023-03-04T01:13:04;99574.41;;;1.45;100.00
57948;BME280;43754;56.992;24.292;2023-03-04T01:15:36;99576.66;;;1.40;100.00
57948;BME280;43754;56.992;24.292;2023-03-04T01:18:09;99566.97;;;1.31;100.00
57948;BME280;43754;56.992;24.292;2023-03-04T01:20:41;99563.69;;;1.29;100.00
57948;BME280;43754;56.992;24.292;2023-03-04T01:23:15;99561.88;;;1.29;100.00
57948;BME280;43754;56.992;24.292;2023-03-04T01:25:47;99551.31;;;1.29;100.00
57948;BME280;43754;56.992;24.292;2023-03-04T01:28:19;99555.47;;;1.32;100.00
57948;BME280;43754;56.992;24.292;2023-03-04T01:30:51;99549.19;;;1.33;100.00
57948;BME280;43754;56.992;24.292;2023-03-04T01:33:24;99543.41;;;1.29;100.00
57948;BME280;43754;56.992;24.292;2023-03-04T01:35:56;99542.56;;;1.29;100.00
57948;BME280;43754;56.992;24.292;2023-03-04T01:38:30;99533.28;;;1.25;100.00
57948;BME280;43754;56.992;24.292;2023-03-04T01:41:03;99533.94;;;1.27;100.00
57948;BME280;43754;56.992;24.292;2023-03-04T01:43:35;99544.19;;;1.30;100.00
57948;BME280;43754;56.992;24.292;2023-03-04T01:46:08;99534.19;;;1.33;100.00
57948;BME280;43754;56.992;24.292;2023-03-04T01:48:42;99535.00;;;1.34;100.00
57948;BME280;43754;56.992;24.292;2023-03-04T01:51:17;99538.66;;;1.33;100.00
57948;BME280;43754;56.992;24.292;2023-03-04T01:53:51;99536.66;;;1.35;100.00
57948;BME280;43754;56.992;24.292;2023-03-04T01:56:28;99533.88;;;1.36;100.00
57948;BME280;43754;56.992;24.292;2023-03-04T01:59:09;99532.59;;;1.41;100.00
57948;BME280;43754;56.992;24.292;2023-03-04T02:01:43;99529.00;;;1.42;100.00
57948;BME280;43754;56.992;24.292;2023-03-04T02:04:17;99525.06;;;1.46;100.00
57948;BME280;43754;56.992;24.292;2023-03-04T02:06:50;99551.91;;;1.41;100.00
57948;BME280;43754;56.992;24.292;2023-03-04T02:09:24;99522.28;;;1.29;100.00
57948;BME280;43754;56.992;24.292;2023-03-04T02:11:56;99522.72;;;1.25;100.00
57948;BME280;43754;56.992;24.292;2023-03-04T02:14:29;99511.47;;;1.23;100.00
57948;BME280;43754;56.992;24.292;2023-03-04T02:17:01;99514.25;;;1.21;100.00
57948;BME280;43754;56.992;24.292;2023-03-04T02:19:41;99527.31;;;1.23;100.00
57948;BME280;43754;56.992;24.292;2023-03-04T02:22:16;99514.81;;;1.25;100.00
57948;BME280;43754;56.992;24.292;2023-03-04T02:24:53;99507.56;;;1.27;100.00
57948;BME280;43754;56.992;24.292;2023-03-04T02:27:27;99513.97;;;1.24;100.00
57948;BME280;43754;56.992;24.292;2023-03-04T02:29:59;99506.72;;;1.26;100.00
57948;BME280;43754;56.992;24.292;2023-03-04T02:32:32;99504.91;;;1.27;100.00
57948;BME280;43754;56.992;24.292;2023-03-04T02:35:05;99507.94;;;1.32;100.00
57948;BME280;43754;56.992;24.292;2023-03-04T02:37:37;99502.53;;;1.33;100.00
57948;BME280;43754;56.992;24.292;2023-03-04T02:40:13;99498.88;;;1.34;100.00
57948;BME280;43754;56.992;24.292;2023-03-04T02:42:47;99499.19;;;1.14;100.00
57948;BME280;43754;56.992;24.292;2023-03-04T02:45:47;99489.69;;;1.03;100.00
57948;BME280;43754;56.992;24.292;2023-03-04T02:48:20;99496.91;;;1.01;100.00
57948;BME280;43754;56.992;24.292;2023-03-04T02:50:53;99482.66;;;0.94;100.00
57948;BME280;43754;56.992;24.292;2023-03-04T02:53:25;99487.81;;;0.96;100.00
57948;BME280;43754;56.992;24.292;2023-03-04T02:55:57;99477.59;;;1.01;100.00
57948;BME280;43754;56.992;24.292;2023-03-04T02:58:35;99488.53;;;1.06;100.00
57948;BME280;43754;56.992;24.292;2023-03-04T03:01:09;99484.63;;;1.10;100.00
57948;BME280;43754;56.992;24.292;2023-03-04T03:03:41;99469.63;;;1.10;100.00
57948;BME280;43754;56.992;24.292;2023-03-04T03:06:14;99468.19;;;1.16;100.00
57948;BME280;43754;56.992;24.292;2023-03-04T03:08:46;99480.25;;;1.18;100.00
57948;BME280;43754;56.992;24.292;2023-03-04T03:11:18;99485.22;;;1.21;100.00
57948;BME280;43754;56.992;24.292;2023-03-04T03:13:52;99460.50;;;1.22;100.00
57948;BME280;43754;56.992;24.292;2023-03-04T03:16:24;99462.69;;;1.27;100.00
57948;BME280;43754;56.992;24.292;2023-03-04T03:18:56;99442.03;;;1.22;100.00
57948;BME280;43754;56.992;24.292;2023-03-04T03:21:28;99436.75;;;1.22;100.00
57948;BME280;43754;56.992;24.292;2023-03-04T03:24:00;99446.84;;;1.27;100.00
57948;BME280;43754;56.992;24.292;2023-03-04T03:26:33;99437.44;;;1.24;100.00
57948;BME280;43754;56.992;24.292;2023-03-04T03:29:06;99446.31;;;1.23;100.00
57948;BME280;43754;56.992;24.292;2023-03-04T03:31:38;99435.63;;;1.25;100.00
57948;BME280;43754;56.992;24.292;2023-03-04T03:34:10;99439.91;;;1.26;100.00
57948;BME280;43754;56.992;24.292;2023-03-04T03:36:42;99445.34;;;1.24;100.00
57948;BME280;43754;56.992;24.292;2023-03-04T03:39:14;99430.56;;;1.14;100.00
57948;BME280;43754;56.992;24.292;2023-03-04T03:41:46;99429.06;;;1.11;100.00
57948;BME280;43754;56.992;24.292;2023-03-04T03:44:19;99435.63;;;1.07;100.00
57948;BME280;43754;56.992;24.292;2023-03-04T03:46:51;99433.13;;;1.06;100.00
57948;BME280;43754;56.992;24.292;2023-03-04T03:49:23;99421.59;;;1.07;100.00
57948;BME280;43754;56.992;24.292;2023-03-04T03:51:55;99425.22;;;1.06;100.00
57948;BME280;43754;56.992;24.292;2023-03-04T03:54:27;99416.47;;;1.05;100.00
57948;BME280;43754;56.992;24.292;2023-03-04T03:56:59;99408.41;;;1.07;100.00
57948;BME280;43754;56.992;24.292;2023-03-04T03:59:33;99415.50;;;1.06;100.00
57948;BME280;43754;56.992;24.292;2023-03-04T04:02:05;99417.16;;;1.07;100.00
57948;BME280;43754;56.992;24.292;2023-03-04T04:04:37;99412.84;;;1.06;100.00
57948;BME280;43754;56.992;24.292;2023-03-04T04:07:09;99404.94;;;1.06;100.00
57948;BME280;43754;56.992;24.292;2023-03-04T04:09:41;99406.75;;;1.06;100.00
57948;BME280;43754;56.992;24.292;2023-03-04T04:12:14;99409.38;;;1.06;100.00
57948;BME280;43754;56.992;24.292;2023-03-04T04:14:48;99412.19;;;1.04;100.00
57948;BME280;43754;56.992;24.292;2023-03-04T04:17:20;99416.25;;;0.99;100.00
57948;BME280;43754;56.992;24.292;2023-03-04T04:19:52;99415.50;;;0.88;100.00
57948;BME280;43754;56.992;24.292;2023-03-04T04:22:24;99399.44;;;0.82;100.00
57948;BME280;43754;56.992;24.292;2023-03-04T04:24:56;99404.78;;;0.72;100.00
57948;BME280;43754;56.992;24.292;2023-03-04T04:27:28;99411.88;;;0.72;100.00
57948;BME280;43754;56.992;24.292;2023-03-04T04:30:02;99401.50;;;0.70;100.00
57948;BME280;43754;56.992;24.292;2023-03-04T04:32:34;99392.22;;;0.66;100.00
57948;BME280;43754;56.992;24.292;2023-03-04T04:35:07;99388.50;;;0.59;100.00
57948;BME280;43754;56.992;24.292;2023-03-04T04:37:39;99406.97;;;0.59;100.00
57948;BME280;43754;56.992;24.292;2023-03-04T04:40:12;99385.66;;;0.53;100.00
57948;BME280;43754;56.992;24.292;2023-03-04T04:42:44;99390.78;;;0.54;100.00
57948;BME280;43754;56.992;24.292;2023-03-04T04:45:17;99391.75;;;0.53;100.00
57948;BME280;43754;56.992;24.292;2023-03-04T04:47:49;99390.63;;;0.56;100.00
57948;BME280;43754;56.992;24.292;2023-03-04T04:50:21;99384.91;;;0.60;100.00
57948;BME280;43754;56.992;24.292;2023-03-04T04:52:53;99384.44;;;0.65;100.00
57948;BME280;43754;56.992;24.292;2023-03-04T04:55:25;99389.88;;;0.63;100.00
57948;BME280;43754;56.992;24.292;2023-03-04T04:57:57;99390.78;;;0.54;100.00
57948;BME280;43754;56.992;24.292;2023-03-04T05:00:30;99381.25;;;0.43;100.00
57948;BME280;43754;56.992;24.292;2023-03-04T05:03:02;99394.13;;;0.29;100.00
57948;BME280;43754;56.992;24.292;2023-03-04T05:05:34;99399.88;;;-0.13;100.00
57948;BME280;43754;56.992;24.292;2023-03-04T05:08:06;99401.06;;;-0.44;100.00
57948;BME280;43754;56.992;24.292;2023-03-04T05:10:38;99401.81;;;-0.61;100.00
57948;BME280;43754;56.992;24.292;2023-03-04T05:13:10;99397.81;;;-0.75;100.00
57948;BME280;43754;56.992;24.292;2023-03-04T05:15:44;99398.88;;;-0.58;100.00
57948;BME280;43754;56.992;24.292;2023-03-04T05:18:16;99401.13;;;-0.73;100.00
57948;BME280;43754;56.992;24.292;2023-03-04T05:20:49;99366.94;;;-0.82;100.00
57948;BME280;43754;56.992;24.292;2023-03-04T05:23:22;99377.22;;;-0.89;100.00
57948;BME280;43754;56.992;24.292;2023-03-04T05:25:54;99371.25;;;-0.81;100.00
57948;BME280;43754;56.992;24.292;2023-03-04T05:28:26;99384.66;;;-0.75;100.00
57948;BME280;43754;56.992;24.292;2023-03-04T05:31:00;99372.19;;;-0.63;100.00
57948;BME280;43754;56.992;24.292;2023-03-04T05:33:32;99377.94;;;-0.50;100.00
57948;BME280;43754;56.992;24.292;2023-03-04T05:36:05;99385.53;;;-0.37;100.00
57948;BME280;43754;56.992;24.292;2023-03-04T05:38:37;99382.19;;;-0.30;100.00
57948;BME280;43754;56.992;24.292;2023-03-04T05:41:09;99376.38;;;-0.33;100.00
57948;BME280;43754;56.992;24.292;2023-03-04T05:43:41;99389.16;;;-0.38;100.00
57948;BME280;43754;56.992;24.292;2023-03-04T05:46:17;99383.88;;;-0.38;100.00
57948;BME280;43754;56.992;24.292;2023-03-04T05:48:50;99386.53;;;-0.38;100.00
57948;BME280;43754;56.992;24.292;2023-03-04T05:51:22;99379.69;;;-0.31;100.00
57948;BME280;43754;56.992;24.292;2023-03-04T05:53:54;99380.50;;;-0.21;100.00
57948;BME280;43754;56.992;24.292;2023-03-04T05:56:26;99375.59;;;-0.16;100.00
57948;BME280;43754;56.992;24.292;2023-03-04T05:59:00;99377.41;;;-0.17;100.00
57948;BME280;43754;56.992;24.292;2023-03-04T06:01:34;99366.59;;;-0.14;100.00
57948;BME280;43754;56.992;24.292;2023-03-04T06:04:06;99374.19;;;-0.01;100.00
57948;BME280;43754;56.992;24.292;2023-03-04T06:06:38;99384.53;;;0.00;100.00
57948;BME280;43754;56.992;24.292;2023-03-04T06:09:10;99367.78;;;0.02;100.00
57948;BME280;43754;56.992;24.292;2023-03-04T06:11:42;99372.66;;;-0.04;100.00
57948;BME280;43754;56.992;24.292;2023-03-04T06:14:14;99379.34;;;-0.09;100.00
57948;BME280;43754;56.992;24.292;2023-03-04T06:16:47;99380.75;;;-0.15;100.00
57948;BME280;43754;56.992;24.292;2023-03-04T06:19:19;99367.19;;;-0.20;100.00
57948;BME280;43754;56.992;24.292;2023-03-04T06:21:51;99369.25;;;-0.14;100.00
57948;BME280;43754;56.992;24.292;2023-03-04T06:24:23;99377.53;;;-0.09;100.00
57948;BME280;43754;56.992;24.292;2023-03-04T06:26:55;99357.13;;;-0.07;100.00
57948;BME280;43754;56.992;24.292;2023-03-04T06:29:27;99363.38;;;-0.08;100.00
57948;BME280;43754;56.992;24.292;2023-03-04T06:32:01;99369.56;;;0.01;100.00
57948;BME280;43754;56.992;24.292;2023-03-04T06:34:33;99359.00;;;0.11;100.00
57948;BME280;43754;56.992;24.292;2023-03-04T06:37:05;99369.53;;;0.11;100.00
57948;BME280;43754;56.992;24.292;2023-03-04T06:39:37;99378.22;;;0.21;100.00
57948;BME280;43754;56.992;24.292;2023-03-04T06:42:09;99361.16;;;0.25;100.00
57948;BME280;43754;56.992;24.292;2023-03-04T06:44:41;99354.66;;;0.19;100.00
57948;BME280;43754;56.992;24.292;2023-03-04T06:47:14;99369.06;;;0.25;100.00
57948;BME280;43754;56.992;24.292;2023-03-04T06:49:47;99346.59;;;0.38;100.00
57948;BME280;43754;56.992;24.292;2023-03-04T06:52:19;99370.41;;;0.46;100.00
57948;BME280;43754;56.992;24.292;2023-03-04T06:54:51;99362.91;;;0.69;100.00
57948;BME280;43754;56.992;24.292;2023-03-04T06:57:23;99371.78;;;0.86;100.00
57948;BME280;43754;56.992;24.292;2023-03-04T06:59:55;99354.81;;;0.88;100.00
57948;BME280;43754;56.992;24.292;2023-03-04T07:02:29;99354.75;;;0.98;100.00
57948;BME280;43754;56.992;24.292;2023-03-04T07:05:00;99364.34;;;0.81;100.00
57948;BME280;43754;56.992;24.292;2023-03-04T07:07:32;99359.56;;;0.67;100.00
57948;BME280;43754;56.992;24.292;2023-03-04T07:10:05;99360.28;;;0.69;100.00
57948;BME280;43754;56.992;24.292;2023-03-04T07:12:37;99358.75;;;0.84;100.00
57948;BME280;43754;56.992;24.292;2023-03-04T07:15:09;99352.56;;;0.93;100.00
57948;BME280;43754;56.992;24.292;2023-03-04T07:17:43;99361.25;;;0.86;100.00
57948;BME280;43754;56.992;24.292;2023-03-04T07:20:15;99353.25;;;0.96;100.00
57948;BME280;43754;56.992;24.292;2023-03-04T07:22:47;99363.44;;;0.90;100.00
57948;BME280;43754;56.992;24.292;2023-03-04T07:25:19;99377.13;;;0.76;100.00
57948;BME280;43754;56.992;24.292;2023-03-04T07:27:51;99373.28;;;0.35;100.00
57948;BME280;43754;56.992;24.292;2023-03-04T07:30:23;99379.09;;;0.12;100.00
57948;BME280;43754;56.992;24.292;2023-03-04T07:32:57;99367.34;;;0.06;100.00
57948;BME280;43754;56.992;24.292;2023-03-04T07:35:29;99367.53;;;0.22;100.00
57948;BME280;43754;56.992;24.292;2023-03-04T07:38:01;99365.75;;;0.40;100.00
57948;BME280;43754;56.992;24.292;2023-03-04T07:40:33;99361.31;;;0.59;100.00
57948;BME280;43754;56.992;24.292;2023-03-04T07:43:05;99363.94;;;0.76;100.00
57948;BME280;43754;56.992;24.292;2023-03-04T07:45:37;99351.53;;;0.86;100.00
57948;BME280;43754;56.992;24.292;2023-03-04T07:48:10;99356.56;;;0.80;100.00
57948;BME280;43754;56.992;24.292;2023-03-04T07:50:42;99344.50;;;0.60;100.00
57948;BME280;43754;56.992;24.292;2023-03-04T07:53:14;99350.31;;;0.63;100.00
57948;BME280;43754;56.992;24.292;2023-03-04T07:55:46;99347.69;;;0.63;100.00
57948;BME280;43754;56.992;24.292;2023-03-04T07:58:18;99356.50;;;0.54;100.00
57948;BME280;43754;56.992;24.292;2023-03-04T08:00:50;99346.56;;;0.48;100.00
57948;BME280;43754;56.992;24.292;2023-03-04T08:03:24;99345.03;;;0.63;100.00
57948;BME280;43754;56.992;24.292;2023-03-04T08:05:56;99343.38;;;0.80;100.00
57948;BME280;43754;56.992;24.292;2023-03-04T08:08:28;99338.59;;;1.01;100.00
57948;BME280;43754;56.992;24.292;2023-03-04T08:11:03;99351.66;;;1.03;100.00
57948;BME280;43754;56.992;24.292;2023-03-04T08:28:40;99318.50;;;1.00;100.00
57948;BME280;43754;56.992;24.292;2023-03-04T08:31:13;99321.00;;;0.84;100.00
57948;BME280;43754;56.992;24.292;2023-03-04T08:33:45;99321.31;;;0.81;100.00
57948;BME280;43754;56.992;24.292;2023-03-04T08:36:18;99319.94;;;0.77;100.00
57948;BME280;43754;56.992;24.292;2023-03-04T08:38:50;99330.75;;;0.66;100.00
57948;BME280;43754;56.992;24.292;2023-03-04T08:41:22;99324.41;;;0.59;100.00
57948;BME280;43754;56.992;24.292;2023-03-04T08:43:57;99327.78;;;0.51;100.00
57948;BME280;43754;56.992;24.292;2023-03-04T08:46:30;99328.78;;;0.50;100.00
57948;BME280;43754;56.992;24.292;2023-03-04T08:49:02;99328.25;;;0.64;100.00
57948;BME280;43754;56.992;24.292;2023-03-04T08:51:35;99335.88;;;0.50;100.00
57948;BME280;43754;56.992;24.292;2023-03-04T08:54:07;99337.88;;;0.38;100.00
57948;BME280;43754;56.992;24.292;2023-03-04T08:56:39;99343.97;;;0.21;100.00
57948;BME280;43754;56.992;24.292;2023-03-04T08:59:13;99344.94;;;0.20;100.00
57948;BME280;43754;56.992;24.292;2023-03-04T09:01:45;99345.91;;;0.19;100.00
57948;BME280;43754;56.992;24.292;2023-03-04T09:04:17;99344.69;;;0.13;100.00
57948;BME280;43754;56.992;24.292;2023-03-04T09:06:49;99329.06;;;0.12;100.00
57948;BME280;43754;56.992;24.292;2023-03-04T09:09:24;99323.66;;;0.31;100.00
57948;BME280;43754;56.992;24.292;2023-03-04T09:11:56;99343.38;;;0.27;100.00
57948;BME280;43754;56.992;24.292;2023-03-04T09:14:29;99343.13;;;0.38;100.00
57948;BME280;43754;56.992;24.292;2023-03-04T09:17:03;99339.34;;;0.50;100.00
57948;BME280;43754;56.992;24.292;2023-03-04T09:19:36;99328.31;;;0.55;100.00
57948;BME280;43754;56.992;24.292;2023-03-04T09:22:08;99310.34;;;0.50;100.00
57948;BME280;43754;56.992;24.292;2023-03-04T09:24:40;99323.13;;;0.63;100.00
57948;BME280;43754;56.992;24.292;2023-03-04T09:27:12;99313.19;;;0.74;100.00
57948;BME280;43754;56.992;24.292;2023-03-04T09:29:45;99309.72;;;0.74;100.00
57948;BME280;43754;56.992;24.292;2023-03-04T09:32:17;99325.63;;;0.64;100.00
57948;BME280;43754;56.992;24.292;2023-03-04T09:34:49;99316.03;;;0.63;100.00
57948;BME280;43754;56.992;24.292;2023-03-04T09:37:21;99290.88;;;0.69;100.00
57948;BME280;43754;56.992;24.292;2023-03-04T09:39:53;99291.97;;;0.58;100.00
57948;BME280;43754;56.992;24.292;2023-03-04T09:42:30;99305.22;;;0.49;100.00
57948;BME280;43754;56.992;24.292;2023-03-04T09:45:07;99297.44;;;0.47;100.00
57948;BME280;43754;56.992;24.292;2023-03-04T09:47:39;99286.81;;;0.57;100.00
57948;BME280;43754;56.992;24.292;2023-03-04T09:50:12;99295.94;;;0.62;100.00
57948;BME280;43754;56.992;24.292;2023-03-04T09:52:54;99287.88;;;0.64;100.00
57948;BME280;43754;56.992;24.292;2023-03-04T09:55:34;99295.56;;;0.75;100.00
57948;BME280;43754;56.992;24.292;2023-03-04T09:58:15;99292.66;;;0.86;100.00
57948;BME280;43754;56.992;24.292;2023-03-04T10:00:57;99292.03;;;0.66;100.00
57948;BME280;43754;56.992;24.292;2023-03-04T10:03:41;99272.75;;;0.48;100.00
57948;BME280;43754;56.992;24.292;2023-03-04T10:06:16;99276.97;;;0.41;100.00
57948;BME280;43754;56.992;24.292;2023-03-04T10:08:53;99279.00;;;0.47;100.00
57948;BME280;43754;56.992;24.292;2023-03-04T10:11:29;99253.25;;;0.41;100.00
57948;BME280;43754;56.992;24.292;2023-03-04T10:14:14;99278.59;;;0.42;100.00
57948;BME280;43754;56.992;24.292;2023-03-04T10:16:53;99262.97;;;0.58;100.00
57948;BME280;43754;56.992;24.292;2023-03-04T10:19:31;99266.13;;;0.44;100.00
57948;BME280;43754;56.992;24.292;2023-03-04T10:22:16;99252.88;;;0.54;100.00
57948;BME280;43754;56.992;24.292;2023-03-04T10:24:52;99253.53;;;0.38;100.00
57948;BME280;43754;56.992;24.292;2023-03-04T10:27:25;99244.91;;;0.45;100.00
57948;BME280;43754;56.992;24.292;2023-03-04T10:29:59;99245.69;;;0.46;100.00
57948;BME280;43754;56.992;24.292;2023-03-04T10:32:32;99239.97;;;0.51;100.00
57948;BME280;43754;56.992;24.292;2023-03-04T10:35:10;99246.69;;;0.45;100.00
57948;BME280;43754;56.992;24.292;2023-03-04T10:37:45;99239.75;;;0.26;100.00
57948;BME280;43754;56.992;24.292;2023-03-04T10:40:20;99233.44;;;0.19;100.00
57948;BME280;43754;56.992;24.292;2023-03-04T10:42:52;99228.19;;;0.19;100.00
57948;BME280;43754;56.992;24.292;2023-03-04T10:45:26;99213.06;;;0.04;100.00
57948;BME280;43754;56.992;24.292;2023-03-04T10:48:02;99222.44;;;-0.12;100.00
57948;BME280;43754;56.992;24.292;2023-03-04T10:50:34;99219.06;;;-0.22;100.00
57948;BME280;43754;56.992;24.292;2023-03-04T10:53:24;99219.19;;;-0.23;100.00
57948;BME280;43754;56.992;24.292;2023-03-04T10:55:59;99208.66;;;-0.23;100.00
57948;BME280;43754;56.992;24.292;2023-03-04T10:58:31;99211.91;;;-0.29;100.00
57948;BME280;43754;56.992;24.292;2023-03-04T11:01:04;99212.44;;;-0.26;100.00
57948;BME280;43754;56.992;24.292;2023-03-04T11:03:45;99197.13;;;-0.40;100.00
57948;BME280;43754;56.992;24.292;2023-03-04T11:06:20;99185.34;;;-0.36;100.00
57948;BME280;43754;56.992;24.292;2023-03-04T11:08:54;99179.63;;;-0.31;100.00
57948;BME280;43754;56.992;24.292;2023-03-04T11:11:31;99185.78;;;-0.40;100.00
57948;BME280;43754;56.992;24.292;2023-03-04T11:14:18;99173.22;;;-0.47;100.00
57948;BME280;43754;56.992;24.292;2023-03-04T11:16:54;99164.69;;;-0.58;100.00
57948;BME280;43754;56.992;24.292;2023-03-04T11:19:34;99176.78;;;-0.65;100.00
57948;BME280;43754;56.992;24.292;2023-03-04T11:22:09;99183.56;;;-0.63;100.00
57948;BME280;43754;56.992;24.292;2023-03-04T11:24:54;99183.31;;;-0.69;100.00
57948;BME280;43754;56.992;24.292;2023-03-04T11:27:37;99162.56;;;-0.72;100.00
57948;BME280;43754;56.992;24.292;2023-03-04T11:30:42;99168.88;;;-0.65;100.00
57948;BME280;43754;56.992;24.292;2023-03-04T11:33:21;99158.84;;;-0.52;100.00
57948;BME280;43754;56.992;24.292;2023-03-04T11:36:03;99152.44;;;-0.67;100.00
57948;BME280;43754;56.992;24.292;2023-03-04T11:38:40;99165.19;;;-0.72;100.00
57948;BME280;43754;56.992;24.292;2023-03-04T11:41:17;99159.41;;;-0.76;100.00
57948;BME280;43754;56.992;24.292;2023-03-04T11:43:51;99168.00;;;-0.83;100.00
57948;BME280;43754;56.992;24.292;2023-03-04T11:46:52;99168.41;;;-0.78;100.00
57948;BME280;43754;56.992;24.292;2023-03-04T11:49:38;99156.25;;;-0.79;100.00
57948;BME280;43754;56.992;24.292;2023-03-04T11:52:27;99153.34;;;-0.86;100.00
57948;BME280;43754;56.992;24.292;2023-03-04T11:55:11;99160.13;;;-0.83;100.00
57948;BME280;43754;56.992;24.292;2023-03-04T11:57:54;99149.16;;;-0.79;100.00
57948;BME280;43754;56.992;24.292;2023-03-04T12:00:36;99158.72;;;-0.78;100.00
57948;BME280;43754;56.992;24.292;2023-03-04T12:03:35;99155.66;;;-0.73;100.00
57948;BME280;43754;56.992;24.292;2023-03-04T12:06:20;99176.28;;;-0.78;100.00
57948;BME280;43754;56.992;24.292;2023-03-04T12:09:08;99180.44;;;-0.76;100.00
57948;BME280;43754;56.992;24.292;2023-03-04T12:11:47;99172.66;;;-0.68;100.00
57948;BME280;43754;56.992;24.292;2023-03-04T12:14:26;99178.84;;;-0.59;100.00
57948;BME280;43754;56.992;24.292;2023-03-04T12:17:15;99169.50;;;-0.54;100.00
57948;BME280;43754;56.992;24.292;2023-03-04T12:20:14;99169.00;;;-0.39;100.00
57948;BME280;43754;56.992;24.292;2023-03-04T12:22:51;99179.84;;;-0.25;100.00
57948;BME280;43754;56.992;24.292;2023-03-04T12:25:36;99173.09;;;-0.10;100.00
57948;BME280;43754;56.992;24.292;2023-03-04T12:28:21;99167.44;;;0.03;100.00
57948;BME280;43754;56.992;24.292;2023-03-04T12:31:06;99174.91;;;0.08;100.00
57948;BME280;43754;56.992;24.292;2023-03-04T12:33:50;99180.84;;;0.10;100.00
57948;BME280;43754;56.992;24.292;2023-03-04T12:36:30;99172.47;;;-0.04;100.00
57948;BME280;43754;56.992;24.292;2023-03-04T12:39:19;99183.38;;;-0.16;100.00
57948;BME280;43754;56.992;24.292;2023-03-04T12:42:03;99196.78;;;-0.10;100.00
57948;BME280;43754;56.992;24.292;2023-03-04T12:44:42;99198.59;;;-0.10;100.00
57948;BME280;43754;56.992;24.292;2023-03-04T12:47:27;99188.44;;;-0.05;100.00
57948;BME280;43754;56.992;24.292;2023-03-04T12:50:20;99202.22;;;0.07;100.00
57948;BME280;43754;56.992;24.292;2023-03-04T12:53:01;99197.72;;;0.17;100.00
57948;BME280;43754;56.992;24.292;2023-03-04T12:55:42;99199.19;;;0.19;100.00
57948;BME280;43754;56.992;24.292;2023-03-04T12:58:19;99199.28;;;0.27;100.00
57948;BME280;43754;56.992;24.292;2023-03-04T13:00:58;99212.91;;;0.23;100.00
57948;BME280;43754;56.992;24.292;2023-03-04T13:03:40;99205.63;;;0.17;100.00
57948;BME280;43754;56.992;24.292;2023-03-04T13:06:25;99222.38;;;0.16;100.00
57948;BME280;43754;56.992;24.292;2023-03-04T13:09:04;99218.94;;;0.15;100.00
57948;BME280;43754;56.992;24.292;2023-03-04T13:11:54;99225.25;;;0.22;100.00
57948;BME280;43754;56.992;24.292;2023-03-04T13:14:34;99227.03;;;0.22;100.00
57948;BME280;43754;56.992;24.292;2023-03-04T13:17:38;99256.41;;;0.27;100.00
57948;BME280;43754;56.992;24.292;2023-03-04T13:20:22;99253.47;;;0.30;100.00
57948;BME280;43754;56.992;24.292;2023-03-04T13:22:55;99247.22;;;0.31;100.00
57948;BME280;43754;56.992;24.292;2023-03-04T13:25:41;99259.63;;;0.38;100.00
57948;BME280;43754;56.992;24.292;2023-03-04T13:28:24;99267.09;;;0.43;100.00
57948;BME280;43754;56.992;24.292;2023-03-04T13:31:12;99258.00;;;0.37;100.00
57948;BME280;43754;56.992;24.292;2023-03-04T13:33:49;99271.47;;;0.34;100.00
57948;BME280;43754;56.992;24.292;2023-03-04T13:36:56;99263.09;;;0.39;100.00
57948;BME280;43754;56.992;24.292;2023-03-04T13:39:31;99281.63;;;0.29;100.00
57948;BME280;43754;56.992;24.292;2023-03-04T13:42:37;99275.91;;;0.34;100.00
57948;BME280;43754;56.992;24.292;2023-03-04T13:45:32;99285.91;;;0.30;100.00